sensor_id;sensor_type;location;lat;lon;timestamp;P1;durP1;ratioP1;P2;durP2;ratioP2
2724;SDS011;1370;52.596;13.112;2023-07-13T00:00:09;6.47;;;4.00;;
2724;SDS011;1370;52.596;13.112;2023-07-13T00:02:34;4.30;;;3.47;;
2724;SDS011;1370;52.596;13.112;2023-07-13T00:05:00;6.00;;;3.97;;
2724;SDS011;1370;52.596;13.112;2023-07-13T00:07:25;5.93;;;3.70;;
2724;SDS011;1370;52.596;13.112;2023-07-13T00:09:51;8.13;;;3.60;;
2724;SDS011;1370;52.596;13.112;2023-07-13T00:12:25;4.20;;;3.90;;
2724;SDS011;1370;52.596;13.112;2023-07-13T00:15:01;4.83;;;4.40;;
2724;SDS011;1370;52.596;13.112;2023-07-13T00:17:29;3.70;;;3.20;;
2724;SDS011;1370;52.596;13.112;2023-07-13T00:19:55;5.50;;;3.73;;
2724;SDS011;1370;52.596;13.112;2023-07-13T00:22:21;4.60;;;3.57;;
2724;SDS011;1370;52.596;13.112;2023-07-13T00:24:46;6.77;;;3.90;;
2724;SDS011;1370;52.596;13.112;2023-07-13T00:27:16;3.73;;;3.53;;
2724;SDS011;1370;52.596;13.112;2023-07-13T00:29:42;3.80;;;3.50;;
2724;SDS011;1370;52.596;13.112;2023-07-13T00:32:08;4.90;;;3.80;;
2724;SDS011;1370;52.596;13.112;2023-07-13T00:34:34;5.57;;;3.73;;
2724;SDS011;1370;52.596;13.112;2023-07-13T00:36:59;4.40;;;4.00;;
2724;SDS011;1370;52.596;13.112;2023-07-13T00:39:25;8.17;;;3.60;;
2724;SDS011;1370;52.596;13.112;2023-07-13T00:41:50;8.37;;;3.90;;
2724;SDS011;1370;52.596;13.112;2023-07-13T00:44:17;4.43;;;4.10;;
2724;SDS011;1370;52.596;13.112;2023-07-13T00:46:43;3.80;;;3.40;;
2724;SDS011;1370;52.596;13.112;2023-07-13T00:49:09;4.10;;;3.53;;
2724;SDS011;1370;52.596;13.112;2023-07-13T00:51:50;6.13;;;4.33;;
2724;SDS011;1370;52.596;13.112;2023-07-13T00:54:19;3.97;;;3.67;;
2724;SDS011;1370;52.596;13.112;2023-07-13T00:56:49;5.80;;;3.83;;
2724;SDS011;1370;52.596;13.112;2023-07-13T00:59:16;4.13;;;3.87;;
2724;SDS011;1370;52.596;13.112;2023-07-13T01:01:42;4.17;;;3.87;;
2724;SDS011;1370;52.596;13.112;2023-07-13T01:04:08;3.67;;;3.37;;
2724;SDS011;1370;52.596;13.112;2023-07-13T01:06:34;3.77;;;3.47;;
2724;SDS011;1370;52.596;13.112;2023-07-13T01:09:03;4.57;;;4.27;;
2724;SDS011;1370;52.596;13.112;2023-07-13T01:11:29;3.70;;;3.40;;
2724;SDS011;1370;52.596;13.112;2023-07-13T01:13:54;3.90;;;3.60;;
2724;SDS011;1370;52.596;13.112;2023-07-13T01:16:24;7.23;;;3.90;;
2724;SDS011;1370;52.596;13.112;2023-07-13T01:18:51;4.00;;;3.70;;
2724;SDS011;1370;52.596;13.112;2023-07-13T01:21:16;3.40;;;3.20;;
2724;SDS011;1370;52.596;13.112;2023-07-13T01:23:43;8.23;;;3.50;;
2724;SDS011;1370;52.596;13.112;2023-07-13T01:26:15;3.53;;;3.33;;
2724;SDS011;1370;52.596;13.112;2023-07-13T01:28:41;5.30;;;4.27;;
2724;SDS011;1370;52.596;13.112;2023-07-13T01:31:06;4.47;;;4.10;;
2724;SDS011;1370;52.596;13.112;2023-07-13T01:33:33;6.83;;;4.47;;
2724;SDS011;1370;52.596;13.112;2023-07-13T01:35:59;6.40;;;4.20;;
2724;SDS011;1370;52.596;13.112;2023-07-13T01:38:25;5.67;;;3.90;;
2724;SDS011;1370;52.596;13.112;2023-07-13T01:40:51;4.27;;;3.87;;
2724;SDS011;1370;52.596;13.112;2023-07-13T01:43:17;3.83;;;3.63;;
2724;SDS011;1370;52.596;13.112;2023-07-13T01:45:42;6.00;;;4.03;;
2724;SDS011;1370;52.596;13.112;2023-07-13T01:48:09;6.17;;;4.53;;
2724;SDS011;1370;52.596;13.112;2023-07-13T01:50:34;6.00;;;4.63;;
2724;SDS011;1370;52.596;13.112;2023-07-13T01:53:00;7.07;;;3.93;;
2724;SDS011;1370;52.596;13.112;2023-07-13T01:55:25;5.70;;;3.83;;
2724;SDS011;1370;52.596;13.112;2023-07-13T01:57:50;3.90;;;3.60;;
2724;SDS011;1370;52.596;13.112;2023-07-13T02:00:16;4.40;;;4.07;;
2724;SDS011;1370;52.596;13.112;2023-07-13T02:02:43;4.23;;;3.77;;
2724;SDS011;1370;52.596;13.112;2023-07-13T02:05:09;5.30;;;3.97;;
2724;SDS011;1370;52.596;13.112;2023-07-13T02:07:34;4.90;;;4.53;;
2724;SDS011;1370;52.596;13.112;2023-07-13T02:09:59;4.57;;;3.87;;
2724;SDS011;1370;52.596;13.112;2023-07-13T02:12:25;4.47;;;3.90;;
2724;SDS011;1370;52.596;13.112;2023-07-13T02:14:50;4.83;;;3.67;;
2724;SDS011;1370;52.596;13.112;2023-07-13T02:17:15;3.40;;;3.20;;
2724;SDS011;1370;52.596;13.112;2023-07-13T02:19:40;5.03;;;4.27;;
2724;SDS011;1370;52.596;13.112;2023-07-13T02:22:06;4.60;;;4.30;;
2724;SDS011;1370;52.596;13.112;2023-07-13T02:24:31;3.23;;;2.93;;
2724;SDS011;1370;52.596;13.112;2023-07-13T02:26:56;5.00;;;4.20;;
2724;SDS011;1370;52.596;13.112;2023-07-13T02:29:22;4.63;;;3.73;;
2724;SDS011;1370;52.596;13.112;2023-07-13T02:31:47;6.30;;;4.30;;
2724;SDS011;1370;52.596;13.112;2023-07-13T02:34:13;5.33;;;3.53;;
2724;SDS011;1370;52.596;13.112;2023-07-13T02:36:38;3.90;;;3.50;;
2724;SDS011;1370;52.596;13.112;2023-07-13T02:39:04;5.20;;;3.93;;
2724;SDS011;1370;52.596;13.112;2023-07-13T02:41:30;5.80;;;4.57;;
2724;SDS011;1370;52.596;13.112;2023-07-13T02:43:55;3.97;;;3.67;;
2724;SDS011;1370;52.596;13.112;2023-07-13T02:46:28;8.80;;;4.30;;
2724;SDS011;1370;52.596;13.112;2023-07-13T02:48:53;5.00;;;4.70;;
2724;SDS011;1370;52.596;13.112;2023-07-13T02:51:19;5.87;;;4.13;;
2724;SDS011;1370;52.596;13.112;2023-07-13T02:53:44;3.73;;;3.43;;
2724;SDS011;1370;52.596;13.112;2023-07-13T02:56:09;5.73;;;5.17;;
2724;SDS011;1370;52.596;13.112;2023-07-13T02:58:35;5.00;;;4.70;;
2724;SDS011;1370;52.596;13.112;2023-07-13T03:01:05;8.47;;;4.57;;
2724;SDS011;1370;52.596;13.112;2023-07-13T03:03:31;4.27;;;3.97;;
2724;SDS011;1370;52.596;13.112;2023-07-13T03:06:00;3.93;;;3.43;;
2724;SDS011;1370;52.596;13.112;2023-07-13T03:08:27;4.77;;;4.37;;
2724;SDS011;1370;52.596;13.112;2023-07-13T03:11:03;4.60;;;4.20;;
2724;SDS011;1370;52.596;13.112;2023-07-13T03:13:32;4.23;;;3.93;;
2724;SDS011;1370;52.596;13.112;2023-07-13T03:15:58;6.20;;;4.70;;
2724;SDS011;1370;52.596;13.112;2023-07-13T03:18:23;4.73;;;4.33;;
2724;SDS011;1370;52.596;13.112;2023-07-13T03:20:52;4.70;;;3.30;;
2724;SDS011;1370;52.596;13.112;2023-07-13T03:23:17;4.97;;;4.20;;
2724;SDS011;1370;52.596;13.112;2023-07-13T03:25:43;4.20;;;3.60;;
2724;SDS011;1370;52.596;13.112;2023-07-13T03:28:09;4.23;;;3.93;;
2724;SDS011;1370;52.596;13.112;2023-07-13T03:30:34;4.70;;;4.27;;
2724;SDS011;1370;52.596;13.112;2023-07-13T03:32:59;5.53;;;5.13;;
2724;SDS011;1370;52.596;13.112;2023-07-13T03:35:25;5.17;;;4.30;;
2724;SDS011;1370;52.596;13.112;2023-07-13T03:37:50;5.23;;;4.30;;
2724;SDS011;1370;52.596;13.112;2023-07-13T03:40:16;5.87;;;4.97;;
2724;SDS011;1370;52.596;13.112;2023-07-13T03:42:41;4.10;;;3.60;;
2724;SDS011;1370;52.596;13.112;2023-07-13T03:45:07;4.73;;;4.20;;
2724;SDS011;1370;52.596;13.112;2023-07-13T03:47:33;7.20;;;5.70;;
2724;SDS011;1370;52.596;13.112;2023-07-13T03:49:58;4.23;;;3.80;;
2724;SDS011;1370;52.596;13.112;2023-07-13T03:52:23;4.23;;;3.87;;
2724;SDS011;1370;52.596;13.112;2023-07-13T03:54:48;5.07;;;4.77;;
2724;SDS011;1370;52.596;13.112;2023-07-13T03:57:14;4.73;;;3.90;;
2724;SDS011;1370;52.596;13.112;2023-07-13T03:59:40;6.57;;;4.13;;
2724;SDS011;1370;52.596;13.112;2023-07-13T04:02:05;8.43;;;4.60;;
2724;SDS011;1370;52.596;13.112;2023-07-13T04:04:30;4.37;;;4.00;;
2724;SDS011;1370;52.596;13.112;2023-07-13T04:06:56;4.23;;;3.77;;
2724;SDS011;1370;52.596;13.112;2023-07-13T04:09:23;8.80;;;4.77;;
2724;SDS011;1370;52.596;13.112;2023-07-13T04:11:48;10.13;;;4.60;;
2724;SDS011;1370;52.596;13.112;2023-07-13T04:14:14;5.30;;;4.63;;
2724;SDS011;1370;52.596;13.112;2023-07-13T04:16:39;10.13;;;4.23;;
2724;SDS011;1370;52.596;13.112;2023-07-13T04:19:04;5.17;;;4.50;;
2724;SDS011;1370;52.596;13.112;2023-07-13T04:21:30;7.57;;;4.40;;
2724;SDS011;1370;52.596;13.112;2023-07-13T04:23:56;7.33;;;4.80;;
2724;SDS011;1370;52.596;13.112;2023-07-13T04:26:21;6.07;;;3.80;;
2724;SDS011;1370;52.596;13.112;2023-07-13T04:28:47;4.70;;;4.30;;
2724;SDS011;1370;52.596;13.112;2023-07-13T04:31:13;5.30;;;4.67;;
2724;SDS011;1370;52.596;13.112;2023-07-13T04:33:39;4.63;;;3.90;;
2724;SDS011;1370;52.596;13.112;2023-07-13T04:36:04;4.90;;;4.50;;
2724;SDS011;1370;52.596;13.112;2023-07-13T04:38:30;4.80;;;4.40;;
2724;SDS011;1370;52.596;13.112;2023-07-13T04:40:57;13.97;;;4.90;;
2724;SDS011;1370;52.596;13.112;2023-07-13T04:43:30;12.27;;;4.93;;
2724;SDS011;1370;52.596;13.112;2023-07-13T04:45:57;6.63;;;6.00;;
2724;SDS011;1370;52.596;13.112;2023-07-13T04:48:22;5.20;;;4.90;;
2724;SDS011;1370;52.596;13.112;2023-07-13T04:50:48;5.80;;;4.20;;
2724;SDS011;1370;52.596;13.112;2023-07-13T04:53:19;5.00;;;4.53;;
2724;SDS011;1370;52.596;13.112;2023-07-13T04:55:45;4.80;;;4.40;;
2724;SDS011;1370;52.596;13.112;2023-07-13T04:58:12;5.73;;;5.13;;
2724;SDS011;1370;52.596;13.112;2023-07-13T05:00:37;4.00;;;3.70;;
2724;SDS011;1370;52.596;13.112;2023-07-13T05:03:02;4.83;;;4.40;;
2724;SDS011;1370;52.596;13.112;2023-07-13T05:05:27;7.23;;;4.80;;
2724;SDS011;1370;52.596;13.112;2023-07-13T05:07:53;5.80;;;5.33;;
2724;SDS011;1370;52.596;13.112;2023-07-13T05:10:19;4.40;;;4.10;;
2724;SDS011;1370;52.596;13.112;2023-07-13T05:12:44;5.07;;;4.63;;
2724;SDS011;1370;52.596;13.112;2023-07-13T05:15:10;5.27;;;4.50;;
2724;SDS011;1370;52.596;13.112;2023-07-13T05:17:35;4.63;;;4.20;;
2724;SDS011;1370;52.596;13.112;2023-07-13T05:20:00;4.80;;;4.23;;
2724;SDS011;1370;52.596;13.112;2023-07-13T05:22:26;5.03;;;4.53;;
2724;SDS011;1370;52.596;13.112;2023-07-13T05:24:51;5.27;;;4.87;;
2724;SDS011;1370;52.596;13.112;2023-07-13T05:27:16;7.17;;;4.20;;
2724;SDS011;1370;52.596;13.112;2023-07-13T05:29:42;6.80;;;4.60;;
2724;SDS011;1370;52.596;13.112;2023-07-13T05:32:07;5.30;;;4.80;;
2724;SDS011;1370;52.596;13.112;2023-07-13T05:34:32;5.23;;;4.43;;
2724;SDS011;1370;52.596;13.112;2023-07-13T05:36:58;4.03;;;3.57;;
2724;SDS011;1370;52.596;13.112;2023-07-13T05:39:23;5.03;;;4.60;;
2724;SDS011;1370;52.596;13.112;2023-07-13T05:41:48;6.10;;;3.60;;
2724;SDS011;1370;52.596;13.112;2023-07-13T05:44:14;4.00;;;3.70;;
2724;SDS011;1370;52.596;13.112;2023-07-13T05:46:39;5.33;;;3.67;;
2724;SDS011;1370;52.596;13.112;2023-07-13T05:49:04;4.27;;;3.93;;
2724;SDS011;1370;52.596;13.112;2023-07-13T05:51:29;7.40;;;4.20;;
2724;SDS011;1370;52.596;13.112;2023-07-13T05:53:55;4.13;;;3.83;;
2724;SDS011;1370;52.596;13.112;2023-07-13T05:56:20;4.00;;;3.60;;
2724;SDS011;1370;52.596;13.112;2023-07-13T05:58:45;4.43;;;4.10;;
2724;SDS011;1370;52.596;13.112;2023-07-13T06:01:12;4.53;;;3.53;;
2724;SDS011;1370;52.596;13.112;2023-07-13T06:03:38;4.17;;;3.50;;
2724;SDS011;1370;52.596;13.112;2023-07-13T06:06:04;4.80;;;4.40;;
2724;SDS011;1370;52.596;13.112;2023-07-13T06:08:30;4.20;;;3.80;;
2724;SDS011;1370;52.596;13.112;2023-07-13T06:11:01;3.67;;;3.33;;
2724;SDS011;1370;52.596;13.112;2023-07-13T06:13:30;4.43;;;4.00;;
2724;SDS011;1370;52.596;13.112;2023-07-13T06:15:56;7.93;;;4.10;;
2724;SDS011;1370;52.596;13.112;2023-07-13T06:18:21;4.33;;;3.93;;
2724;SDS011;1370;52.596;13.112;2023-07-13T06:20:46;6.40;;;4.20;;
2724;SDS011;1370;52.596;13.112;2023-07-13T06:23:12;7.87;;;4.00;;
2724;SDS011;1370;52.596;13.112;2023-07-13T06:25:37;5.50;;;4.20;;
2724;SDS011;1370;52.596;13.112;2023-07-13T06:28:02;3.60;;;3.30;;
2724;SDS011;1370;52.596;13.112;2023-07-13T06:30:27;3.73;;;3.10;;
2724;SDS011;1370;52.596;13.112;2023-07-13T06:32:53;4.53;;;3.13;;
2724;SDS011;1370;52.596;13.112;2023-07-13T06:35:18;8.73;;;4.83;;
2724;SDS011;1370;52.596;13.112;2023-07-13T06:37:43;3.53;;;3.23;;
2724;SDS011;1370;52.596;13.112;2023-07-13T06:40:09;3.50;;;3.30;;
2724;SDS011;1370;52.596;13.112;2023-07-13T06:42:34;3.30;;;3.00;;
2724;SDS011;1370;52.596;13.112;2023-07-13T06:45:00;7.23;;;3.20;;
2724;SDS011;1370;52.596;13.112;2023-07-13T06:47:25;3.20;;;2.97;;
2724;SDS011;1370;52.596;13.112;2023-07-13T06:49:50;4.77;;;3.60;;
2724;SDS011;1370;52.596;13.112;2023-07-13T06:52:15;4.00;;;3.60;;
2724;SDS011;1370;52.596;13.112;2023-07-13T06:54:41;3.53;;;3.10;;
2724;SDS011;1370;52.596;13.112;2023-07-13T06:57:06;3.20;;;3.00;;
2724;SDS011;1370;52.596;13.112;2023-07-13T06:59:32;4.50;;;4.10;;
2724;SDS011;1370;52.596;13.112;2023-07-13T07:01:57;3.80;;;3.50;;
2724;SDS011;1370;52.596;13.112;2023-07-13T07:04:22;3.63;;;3.10;;
2724;SDS011;1370;52.596;13.112;2023-07-13T07:06:48;5.47;;;3.60;;
2724;SDS011;1370;52.596;13.112;2023-07-13T07:09:13;4.90;;;3.20;;
2724;SDS011;1370;52.596;13.112;2023-07-13T07:11:38;3.03;;;2.73;;
2724;SDS011;1370;52.596;13.112;2023-07-13T07:14:04;5.67;;;3.70;;
2724;SDS011;1370;52.596;13.112;2023-07-13T07:16:29;12.43;;;3.10;;
2724;SDS011;1370;52.596;13.112;2023-07-13T07:18:54;5.83;;;3.70;;
2724;SDS011;1370;52.596;13.112;2023-07-13T07:21:20;4.43;;;3.40;;
2724;SDS011;1370;52.596;13.112;2023-07-13T07:23:48;3.17;;;2.80;;
2724;SDS011;1370;52.596;13.112;2023-07-13T07:26:13;5.33;;;2.40;;
2724;SDS011;1370;52.596;13.112;2023-07-13T07:28:38;2.77;;;2.57;;
2724;SDS011;1370;52.596;13.112;2023-07-13T07:31:04;3.53;;;2.57;;
2724;SDS011;1370;52.596;13.112;2023-07-13T07:33:29;4.73;;;2.60;;
2724;SDS011;1370;52.596;13.112;2023-07-13T07:35:54;6.00;;;3.63;;
2724;SDS011;1370;52.596;13.112;2023-07-13T07:38:20;3.30;;;2.47;;
2724;SDS011;1370;52.596;13.112;2023-07-13T07:40:45;1.70;;;1.60;;
2724;SDS011;1370;52.596;13.112;2023-07-13T07:43:11;3.80;;;2.53;;
2724;SDS011;1370;52.596;13.112;2023-07-13T07:45:37;3.60;;;1.70;;
2724;SDS011;1370;52.596;13.112;2023-07-13T07:48:03;3.40;;;2.07;;
2724;SDS011;1370;52.596;13.112;2023-07-13T07:50:29;3.50;;;2.27;;
2724;SDS011;1370;52.596;13.112;2023-07-13T07:52:55;5.70;;;1.70;;
2724;SDS011;1370;52.596;13.112;2023-07-13T07:55:23;2.90;;;1.60;;
2724;SDS011;1370;52.596;13.112;2023-07-13T07:57:51;2.57;;;1.97;;
2724;SDS011;1370;52.596;13.112;2023-07-13T08:00:17;2.13;;;1.93;;
2724;SDS011;1370;52.596;13.112;2023-07-13T08:02:43;3.23;;;1.73;;
2724;SDS011;1370;52.596;13.112;2023-07-13T08:05:08;3.70;;;1.77;;
2724;SDS011;1370;52.596;13.112;2023-07-13T08:07:34;1.97;;;1.60;;
2724;SDS011;1370;52.596;13.112;2023-07-13T08:10:00;2.63;;;1.50;;
2724;SDS011;1370;52.596;13.112;2023-07-13T08:12:25;1.60;;;1.20;;
2724;SDS011;1370;52.596;13.112;2023-07-13T08:14:51;2.80;;;1.37;;
2724;SDS011;1370;52.596;13.112;2023-07-13T08:17:22;4.80;;;1.63;;
2724;SDS011;1370;52.596;13.112;2023-07-13T08:19:48;2.40;;;2.20;;
2724;SDS011;1370;52.596;13.112;2023-07-13T08:22:13;1.93;;;1.60;;
2724;SDS011;1370;52.596;13.112;2023-07-13T08:24:38;2.13;;;1.93;;
2724;SDS011;1370;52.596;13.112;2023-07-13T08:27:03;3.17;;;1.63;;
2724;SDS011;1370;52.596;13.112;2023-07-13T08:29:29;1.90;;;1.23;;
2724;SDS011;1370;52.596;13.112;2023-07-13T08:31:57;2.37;;;1.80;;
2724;SDS011;1370;52.596;13.112;2023-07-13T08:34:22;2.73;;;1.30;;
2724;SDS011;1370;52.596;13.112;2023-07-13T08:36:48;1.80;;;1.37;;
2724;SDS011;1370;52.596;13.112;2023-07-13T08:39:13;3.33;;;1.33;;
2724;SDS011;1370;52.596;13.112;2023-07-13T08:41:38;2.67;;;2.03;;
2724;SDS011;1370;52.596;13.112;2023-07-13T08:44:04;2.00;;;1.67;;
2724;SDS011;1370;52.596;13.112;2023-07-13T08:46:36;3.60;;;1.50;;
2724;SDS011;1370;52.596;13.112;2023-07-13T08:49:05;6.67;;;2.10;;
2724;SDS011;1370;52.596;13.112;2023-07-13T08:51:43;3.00;;;1.53;;
2724;SDS011;1370;52.596;13.112;2023-07-13T08:54:14;2.87;;;1.53;;
2724;SDS011;1370;52.596;13.112;2023-07-13T08:56:43;2.90;;;1.83;;
2724;SDS011;1370;52.596;13.112;2023-07-13T08:59:11;2.73;;;1.80;;
2724;SDS011;1370;52.596;13.112;2023-07-13T09:04:26;3.20;;;1.77;;
2724;SDS011;1370;52.596;13.112;2023-07-13T09:12:32;2.40;;;1.80;;
2724;SDS011;1370;52.596;13.112;2023-07-13T09:15:05;2.10;;;1.90;;
2724;SDS011;1370;52.596;13.112;2023-07-13T09:17:45;5.00;;;2.23;;
2724;SDS011;1370;52.596;13.112;2023-07-13T09:20:17;3.70;;;2.20;;
2724;SDS011;1370;52.596;13.112;2023-07-13T09:22:52;6.57;;;2.80;;
2724;SDS011;1370;52.596;13.112;2023-07-13T09:25:26;3.60;;;2.10;;
2724;SDS011;1370;52.596;13.112;2023-07-13T09:27:56;5.50;;;2.30;;
2724;SDS011;1370;52.596;13.112;2023-07-13T09:30:36;5.60;;;3.50;;
2724;SDS011;1370;52.596;13.112;2023-07-13T09:33:03;4.13;;;2.37;;
2724;SDS011;1370;52.596;13.112;2023-07-13T09:35:29;4.03;;;2.83;;
2724;SDS011;1370;52.596;13.112;2023-07-13T09:37:59;2.60;;;2.20;;
2724;SDS011;1370;52.596;13.112;2023-07-13T09:40:30;3.10;;;2.90;;
2724;SDS011;1370;52.596;13.112;2023-07-13T09:43:02;3.17;;;2.87;;
2724;SDS011;1370;52.596;13.112;2023-07-13T09:45:30;5.90;;;3.23;;
2724;SDS011;1370;52.596;13.112;2023-07-13T09:48:10;7.03;;;3.23;;
2724;SDS011;1370;52.596;13.112;2023-07-13T09:50:41;6.07;;;3.37;;
2724;SDS011;1370;52.596;13.112;2023-07-13T09:53:14;4.80;;;3.13;;
2724;SDS011;1370;52.596;13.112;2023-07-13T09:55:41;3.27;;;2.97;;
2724;SDS011;1370;52.596;13.112;2023-07-13T09:58:19;3.70;;;2.50;;
2724;SDS011;1370;52.596;13.112;2023-07-13T10:01:01;3.87;;;3.50;;
2724;SDS011;1370;52.596;13.112;2023-07-13T10:03:31;5.60;;;3.20;;
2724;SDS011;1370;52.596;13.112;2023-07-13T10:08:41;6.10;;;3.13;;
2724;SDS011;1370;52.596;13.112;2023-07-13T10:11:17;4.50;;;3.10;;
2724;SDS011;1370;52.596;13.112;2023-07-13T10:13:50;6.00;;;2.87;;
2724;SDS011;1370;52.596;13.112;2023-07-13T10:16:18;5.73;;;2.87;;
2724;SDS011;1370;52.596;13.112;2023-07-13T10:18:48;4.63;;;2.33;;
2724;SDS011;1370;52.596;13.112;2023-07-13T10:21:19;5.00;;;3.20;;
2724;SDS011;1370;52.596;13.112;2023-07-13T10:23:54;3.87;;;3.37;;
2724;SDS011;1370;52.596;13.112;2023-07-13T10:26:26;4.57;;;2.83;;
2724;SDS011;1370;52.596;13.112;2023-07-13T10:28:56;6.13;;;2.37;;
2724;SDS011;1370;52.596;13.112;2023-07-13T10:31:22;4.93;;;3.20;;
2724;SDS011;1370;52.596;13.112;2023-07-13T10:33:47;3.53;;;3.23;;
2724;SDS011;1370;52.596;13.112;2023-07-13T10:39:04;5.70;;;3.67;;
2724;SDS011;1370;52.596;13.112;2023-07-13T10:41:30;3.97;;;3.67;;
2724;SDS011;1370;52.596;13.112;2023-07-13T10:43:58;4.13;;;3.00;;
2724;SDS011;1370;52.596;13.112;2023-07-13T10:46:25;9.30;;;3.90;;
2724;SDS011;1370;52.596;13.112;2023-07-13T10:48:54;5.23;;;3.50;;
2724;SDS011;1370;52.596;13.112;2023-07-13T10:51:22;6.93;;;4.00;;
2724;SDS011;1370;52.596;13.112;2023-07-13T10:53:47;4.77;;;2.80;;
2724;SDS011;1370;52.596;13.112;2023-07-13T10:56:43;4.10;;;2.50;;
2724;SDS011;1370;52.596;13.112;2023-07-13T11:04:40;3.17;;;2.83;;
2724;SDS011;1370;52.596;13.112;2023-07-13T11:07:19;3.43;;;3.13;;
2724;SDS011;1370;52.596;13.112;2023-07-13T11:09:53;4.10;;;3.70;;
2724;SDS011;1370;52.596;13.112;2023-07-13T11:19:51;2.60;;;2.40;;
2724;SDS011;1370;52.596;13.112;2023-07-13T11:22:21;2.87;;;2.37;;
2724;SDS011;1370;52.596;13.112;2023-07-13T11:29:52;6.93;;;3.33;;
2724;SDS011;1370;52.596;13.112;2023-07-13T11:32:24;5.53;;;3.00;;
2724;SDS011;1370;52.596;13.112;2023-07-13T11:34:51;3.90;;;3.50;;
2724;SDS011;1370;52.596;13.112;2023-07-13T11:37:18;3.07;;;2.77;;
2724;SDS011;1370;52.596;13.112;2023-07-13T11:39:44;7.70;;;3.67;;
2724;SDS011;1370;52.596;13.112;2023-07-13T11:42:15;4.93;;;3.30;;
2724;SDS011;1370;52.596;13.112;2023-07-13T11:44:50;4.10;;;2.87;;
2724;SDS011;1370;52.596;13.112;2023-07-13T11:47:20;4.33;;;4.00;;
2724;SDS011;1370;52.596;13.112;2023-07-13T11:49:52;3.97;;;3.57;;
2724;SDS011;1370;52.596;13.112;2023-07-13T11:52:29;6.57;;;3.53;;
2724;SDS011;1370;52.596;13.112;2023-07-13T11:55:01;3.87;;;3.03;;
2724;SDS011;1370;52.596;13.112;2023-07-13T11:57:31;4.97;;;3.83;;
2724;SDS011;1370;52.596;13.112;2023-07-13T12:00:03;3.27;;;3.07;;
2724;SDS011;1370;52.596;13.112;2023-07-13T12:02:42;3.50;;;2.77;;
2724;SDS011;1370;52.596;13.112;2023-07-13T12:05:15;6.90;;;3.30;;
2724;SDS011;1370;52.596;13.112;2023-07-13T12:07:42;6.17;;;2.80;;
2724;SDS011;1370;52.596;13.112;2023-07-13T12:12:34;4.23;;;2.87;;
2724;SDS011;1370;52.596;13.112;2023-07-13T12:15:00;5.47;;;3.97;;
2724;SDS011;1370;52.596;13.112;2023-07-13T12:17:25;5.63;;;3.27;;
2724;SDS011;1370;52.596;13.112;2023-07-13T12:19:51;6.10;;;3.23;;
2724;SDS011;1370;52.596;13.112;2023-07-13T12:22:18;4.00;;;3.70;;
2724;SDS011;1370;52.596;13.112;2023-07-13T12:24:45;3.40;;;3.10;;
2724;SDS011;1370;52.596;13.112;2023-07-13T12:27:25;4.53;;;3.20;;
2724;SDS011;1370;52.596;13.112;2023-07-13T12:29:53;3.13;;;2.93;;
2724;SDS011;1370;52.596;13.112;2023-07-13T12:32:24;3.90;;;2.97;;
2724;SDS011;1370;52.596;13.112;2023-07-13T12:34:52;8.67;;;3.63;;
2724;SDS011;1370;52.596;13.112;2023-07-13T12:37:21;2.57;;;2.37;;
2724;SDS011;1370;52.596;13.112;2023-07-13T12:39:47;9.00;;;3.80;;
2724;SDS011;1370;52.596;13.112;2023-07-13T12:44:59;4.20;;;3.33;;
2724;SDS011;1370;52.596;13.112;2023-07-13T12:47:27;7.20;;;3.10;;
2724;SDS011;1370;52.596;13.112;2023-07-13T12:49:54;9.33;;;2.97;;
2724;SDS011;1370;52.596;13.112;2023-07-13T12:52:23;3.03;;;2.73;;
2724;SDS011;1370;52.596;13.112;2023-07-13T12:54:56;4.87;;;3.33;;
2724;SDS011;1370;52.596;13.112;2023-07-13T12:57:22;4.20;;;3.07;;
2724;SDS011;1370;52.596;13.112;2023-07-13T12:59:51;3.83;;;2.53;;
2724;SDS011;1370;52.596;13.112;2023-07-13T13:02:21;5.93;;;3.20;;
2724;SDS011;1370;52.596;13.112;2023-07-13T13:04:51;4.03;;;2.90;;
2724;SDS011;1370;52.596;13.112;2023-07-13T13:07:16;3.80;;;2.90;;
2724;SDS011;1370;52.596;13.112;2023-07-13T13:09:44;8.20;;;3.40;;
2724;SDS011;1370;52.596;13.112;2023-07-13T13:12:09;5.10;;;2.83;;
2724;SDS011;1370;52.596;13.112;2023-07-13T13:14:35;2.97;;;2.70;;
2724;SDS011;1370;52.596;13.112;2023-07-13T13:17:01;4.80;;;2.67;;
2724;SDS011;1370;52.596;13.112;2023-07-13T13:19:27;3.03;;;2.03;;
2724;SDS011;1370;52.596;13.112;2023-07-13T13:21:54;4.40;;;3.00;;
2724;SDS011;1370;52.596;13.112;2023-07-13T13:24:21;4.40;;;2.63;;
2724;SDS011;1370;52.596;13.112;2023-07-13T13:26:49;5.17;;;2.53;;
2724;SDS011;1370;52.596;13.112;2023-07-13T13:29:17;2.70;;;2.50;;
2724;SDS011;1370;52.596;13.112;2023-07-13T13:31:44;4.20;;;2.43;;
2724;SDS011;1370;52.596;13.112;2023-07-13T13:34:11;3.97;;;2.60;;
2724;SDS011;1370;52.596;13.112;2023-07-13T13:36:38;7.17;;;3.00;;
2724;SDS011;1370;52.596;13.112;2023-07-13T13:39:05;5.37;;;3.20;;
2724;SDS011;1370;52.596;13.112;2023-07-13T13:41:35;5.87;;;2.57;;
2724;SDS011;1370;52.596;13.112;2023-07-13T13:44:00;3.37;;;3.07;;
2724;SDS011;1370;52.596;13.112;2023-07-13T13:46:25;6.93;;;3.40;;
2724;SDS011;1370;52.596;13.112;2023-07-13T13:48:53;3.97;;;2.90;;
2724;SDS011;1370;52.596;13.112;2023-07-13T13:51:20;2.63;;;2.13;;
2724;SDS011;1370;52.596;13.112;2023-07-13T13:53:46;6.30;;;2.13;;
2724;SDS011;1370;52.596;13.112;2023-07-13T13:56:13;2.33;;;2.13;;
2724;SDS011;1370;52.596;13.112;2023-07-13T13:58:38;4.63;;;2.37;;
2724;SDS011;1370;52.596;13.112;2023-07-13T14:01:04;4.90;;;2.20;;
2724;SDS011;1370;52.596;13.112;2023-07-13T14:03:33;5.67;;;3.70;;
2724;SDS011;1370;52.596;13.112;2023-07-13T14:05:59;3.73;;;2.57;;
2724;SDS011;1370;52.596;13.112;2023-07-13T14:08:25;2.70;;;2.33;;
2724;SDS011;1370;52.596;13.112;2023-07-13T14:10:51;4.60;;;2.50;;
2724;SDS011;1370;52.596;13.112;2023-07-13T14:13:20;6.63;;;2.60;;
2724;SDS011;1370;52.596;13.112;2023-07-13T14:15:47;5.40;;;3.40;;
2724;SDS011;1370;52.596;13.112;2023-07-13T14:18:13;2.97;;;2.03;;
2724;SDS011;1370;52.596;13.112;2023-07-13T14:20:42;4.37;;;1.43;;
2724;SDS011;1370;52.596;13.112;2023-07-13T14:23:08;2.87;;;1.63;;
2724;SDS011;1370;52.596;13.112;2023-07-13T14:25:33;2.53;;;1.53;;
2724;SDS011;1370;52.596;13.112;2023-07-13T14:27:59;3.90;;;1.60;;
2724;SDS011;1370;52.596;13.112;2023-07-13T14:30:25;6.67;;;1.97;;
2724;SDS011;1370;52.596;13.112;2023-07-13T14:32:51;2.50;;;1.60;;
2724;SDS011;1370;52.596;13.112;2023-07-13T14:35:18;3.40;;;2.13;;
2724;SDS011;1370;52.596;13.112;2023-07-13T14:37:45;3.00;;;1.60;;
2724;SDS011;1370;52.596;13.112;2023-07-13T14:40:15;8.67;;;2.23;;
2724;SDS011;1370;52.596;13.112;2023-07-13T14:42:41;2.63;;;1.80;;
2724;SDS011;1370;52.596;13.112;2023-07-13T14:45:14;2.83;;;1.47;;
2724;SDS011;1370;52.596;13.112;2023-07-13T14:47:40;4.03;;;1.40;;
2724;SDS011;1370;52.596;13.112;2023-07-13T14:50:11;2.73;;;1.27;;
2724;SDS011;1370;52.596;13.112;2023-07-13T14:52:39;8.43;;;1.90;;
2724;SDS011;1370;52.596;13.112;2023-07-13T14:55:08;1.80;;;1.40;;
2724;SDS011;1370;52.596;13.112;2023-07-13T14:57:35;3.17;;;1.70;;
2724;SDS011;1370;52.596;13.112;2023-07-13T15:00:00;3.37;;;1.63;;
2724;SDS011;1370;52.596;13.112;2023-07-13T15:02:30;4.93;;;1.67;;
2724;SDS011;1370;52.596;13.112;2023-07-13T15:04:57;2.93;;;1.57;;
2724;SDS011;1370;52.596;13.112;2023-07-13T15:07:23;5.03;;;1.60;;
2724;SDS011;1370;52.596;13.112;2023-07-13T15:09:49;6.83;;;1.67;;
2724;SDS011;1370;52.596;13.112;2023-07-13T15:12:15;3.70;;;1.77;;
2724;SDS011;1370;52.596;13.112;2023-07-13T15:14:41;4.40;;;1.50;;
2724;SDS011;1370;52.596;13.112;2023-07-13T15:17:16;3.83;;;1.67;;
2724;SDS011;1370;52.596;13.112;2023-07-13T15:19:48;2.70;;;1.77;;
2724;SDS011;1370;52.596;13.112;2023-07-13T15:22:14;2.90;;;1.30;;
2724;SDS011;1370;52.596;13.112;2023-07-13T15:24:39;3.30;;;1.87;;
2724;SDS011;1370;52.596;13.112;2023-07-13T15:27:07;3.00;;;1.73;;
2724;SDS011;1370;52.596;13.112;2023-07-13T15:29:36;10.53;;;1.93;;
2724;SDS011;1370;52.596;13.112;2023-07-13T15:32:02;3.90;;;1.60;;
2724;SDS011;1370;52.596;13.112;2023-07-13T15:34:27;2.27;;;1.10;;
2724;SDS011;1370;52.596;13.112;2023-07-13T15:36:53;2.93;;;1.33;;